Terminal Aerodrome Forecast
Issued by NWS

Current Version | Previous Version | Text Only | Print | Product List | Glossary On
Versions: 1 2 3 4 5 6 7 8 9 10 11 12 13 14 15 16 17 18 19 20 21 22 23 24 25 26 27 28 29 30 31 32
000 FTUS41 KOKX 171859 AAA TAFGON TAF AMD KGON 171859Z 1719/1818 19007KT P6SM SKC FM181000 17006KT P6SM VCSH OVC090 FM181500 17008KT 2SM -SHRA OVC025=

USA.gov is the U.S. government's official web portal to all federal, state and local government web resources and services.